Time;durP1;ratioP1;P1;durP2;ratioP2;P2;SDS_P1;SDS_P2;PMS_P1;PMS_P2;Temp;Humidity;BMP_temperature;BMP_pressure;BME280_temperature;BME280_humidity;BME280_pressure;Samples;Min_cycle;Max_cycle;Signal;HPM_P1;HPM_P2
2020/12/29 00:01:35;;;;;;;6.87;5.47;;;5.70;99.90;;;;;;5028804;28;20209;-76
2020/12/29 00:04:06;;;;;;;9.77;5.40;;;5.80;99.90;;;;;;5019390;28;20302;-77
2020/12/29 00:06:33;;;;;;;7.10;5.23;;;5.70;99.90;;;;;;5031079;28;20209;-75
2020/12/29 00:09:00;;;;;;;7.13;5.53;;;5.80;99.90;;;;;;5022464;28;20250;-75
2020/12/29 00:11:27;;;;;;;6.20;4.77;;;5.70;99.90;;;;;;5017965;28;20263;-76
2020/12/29 00:13:53;;;;;;;6.57;4.70;;;5.70;99.90;;;;;;5017924;28;20233;-75
2020/12/29 00:16:19;;;;;;;5.53;4.57;;;5.70;99.90;;;;;;5017999;28;20232;-75
2020/12/29 00:18:46;;;;;;;6.27;4.67;;;5.70;99.90;;;;;;5017755;28;20668;-76
2020/12/29 00:21:17;;;;;;;5.53;4.50;;;5.70;99.90;;;;;;5018022;28;20205;-75
2020/12/29 00:23:43;;;;;;;7.37;4.63;;;5.70;99.90;;;;;;5019248;28;20233;-76
2020/12/29 00:26:12;;;;;;;7.77;5.20;;;5.70;99.90;;;;;;5003291;28;20693;-75
2020/12/29 00:28:38;;;;;;;5.83;4.30;;;5.60;99.90;;;;;;5018624;28;20229;-75
2020/12/29 00:31:04;;;;;;;7.20;5.43;;;5.40;99.90;;;;;;5017345;28;20271;-75
2020/12/29 00:33:32;;;;;;;7.70;4.93;;;5.50;99.90;;;;;;5027390;28;20936;-76
2020/12/29 00:35:58;;;;;;;7.03;4.63;;;5.60;99.90;;;;;;5016678;28;20293;-75
2020/12/29 00:38:25;;;;;;;6.40;4.83;;;5.70;99.90;;;;;;5030004;28;20201;-76
2020/12/29 00:40:51;;;;;;;6.23;4.80;;;5.80;99.90;;;;;;5012879;28;20236;-75
2020/12/29 00:43:18;;;;;;;8.93;4.90;;;5.50;99.90;;;;;;5017501;28;20213;-75
2020/12/29 00:45:44;;;;;;;6.27;4.93;;;5.60;99.90;;;;;;5006768;28;20281;-75
2020/12/29 00:48:10;;;;;;;7.43;5.53;;;5.60;99.90;;;;;;5009999;28;20610;-76
2020/12/29 00:50:37;;;;;;;7.23;4.90;;;5.60;99.90;;;;;;5006704;28;20207;-76
2020/12/29 00:53:03;;;;;;;6.43;4.70;;;5.50;99.90;;;;;;5031576;28;20291;-74
2020/12/29 00:55:30;;;;;;;8.27;4.97;;;5.50;99.90;;;;;;5015731;28;20570;-76
2020/12/29 00:57:56;;;;;;;8.50;5.00;;;5.60;99.90;;;;;;5045603;28;20235;-76
2020/12/29 01:00:22;;;;;;;6.90;4.40;;;5.60;99.90;;;;;;5019123;28;20276;-76
2020/12/29 01:02:48;;;;;;;7.47;5.10;;;5.50;99.90;;;;;;5019492;28;20266;-73
2020/12/29 01:05:16;;;;;;;6.27;4.97;;;5.70;99.90;;;;;;5021133;28;20221;-72
2020/12/29 01:07:42;;;;;;;5.77;4.80;;;5.50;99.90;;;;;;5008517;28;20212;-72
2020/12/29 01:10:09;;;;;;;8.00;5.17;;;5.50;99.90;;;;;;5023948;28;20288;-72
2020/12/29 01:12:35;;;;;;;7.10;4.67;;;5.50;99.90;;;;;;5008049;28;20231;-72
2020/12/29 01:15:02;;;;;;;8.37;5.50;;;5.60;99.90;;;;;;5050824;28;20237;-73
2020/12/29 01:17:28;;;;;;;6.90;5.00;;;5.60;99.90;;;;;;5018232;28;20278;-72
2020/12/29 01:19:55;;;;;;;8.00;4.73;;;5.80;99.90;;;;;;4996943;28;20229;-73
2020/12/29 01:22:21;;;;;;;5.97;4.73;;;5.80;99.90;;;;;;5034322;28;20205;-72
2020/12/29 01:24:47;;;;;;;5.43;4.30;;;5.60;99.90;;;;;;5017620;28;20259;-72
2020/12/29 01:27:14;;;;;;;5.60;4.53;;;5.70;99.90;;;;;;5005313;28;21835;-71
2020/12/29 01:29:40;;;;;;;7.20;5.53;;;5.60;99.90;;;;;;5021514;28;20197;-71
2020/12/29 01:32:06;;;;;;;7.60;5.30;;;5.40;99.90;;;;;;5019497;28;20196;-72
2020/12/29 01:34:32;;;;;;;8.07;4.60;;;5.10;99.90;;;;;;5034887;28;20345;-72
2020/12/29 01:36:59;;;;;;;7.43;4.40;;;5.00;99.90;;;;;;5021001;28;20568;-72
2020/12/29 01:39:27;;;;;;;8.33;5.07;;;4.90;99.90;;;;;;5051120;28;20200;-72
2020/12/29 01:41:53;;;;;;;6.97;5.37;;;5.00;99.90;;;;;;5024108;28;20286;-73
2020/12/29 01:44:20;;;;;;;7.30;4.80;;;4.90;99.90;;;;;;5022714;28;20317;-72
2020/12/29 01:46:49;;;;;;;6.70;4.90;;;5.00;99.90;;;;;;5018050;28;20266;-72
2020/12/29 01:49:17;;;;;;;7.60;4.70;;;5.10;99.90;;;;;;5021877;28;20689;-71
2020/12/29 01:51:44;;;;;;;5.53;4.50;;;5.20;99.90;;;;;;5025695;28;20189;-72
2020/12/29 01:54:10;;;;;;;8.07;5.27;;;4.80;99.90;;;;;;5018755;28;20686;-72
2020/12/29 01:56:39;;;;;;;5.23;4.10;;;4.80;99.90;;;;;;5018279;28;20200;-72
2020/12/29 01:59:11;;;;;;;6.57;4.20;;;4.80;99.90;;;;;;5023607;28;20325;-72
2020/12/29 02:01:44;;;;;;;8.07;4.90;;;4.80;99.90;;;;;;5020006;28;20189;-72
2020/12/29 02:04:12;;;;;;;7.17;4.27;;;4.90;99.90;;;;;;5047183;28;20241;-72
2020/12/29 02:06:40;;;;;;;6.70;4.17;;;5.00;99.90;;;;;;5006964;28;20288;-72
2020/12/29 02:09:08;;;;;;;6.40;4.33;;;5.00;99.90;;;;;;5018561;28;20689;-71
2020/12/29 02:11:35;;;;;;;6.27;4.43;;;5.10;99.90;;;;;;5021052;28;20307;-72
2020/12/29 02:14:03;;;;;;;6.20;4.30;;;5.30;99.90;;;;;;5020302;28;20266;-73
2020/12/29 02:16:29;;;;;;;6.03;4.17;;;5.30;99.90;;;;;;5036088;28;20216;-71
2020/12/29 02:18:56;;;;;;;6.57;4.47;;;5.40;99.90;;;;;;5018441;28;20273;-72
2020/12/29 02:21:22;;;;;;;4.27;3.73;;;5.40;99.90;;;;;;5006118;28;20256;-72
2020/12/29 02:23:49;;;;;;;5.97;4.37;;;5.10;99.90;;;;;;5023814;28;20231;-73
2020/12/29 02:26:32;;;;;;;6.23;3.67;;;5.00;99.90;;;;;;5019964;28;20302;-72
2020/12/29 02:29:05;;;;;;;5.10;4.07;;;5.10;99.90;;;;;;5016443;28;20284;-71
2020/12/29 02:31:32;;;;;;;7.63;4.20;;;5.00;99.90;;;;;;5016110;28;21112;-72
2020/12/29 02:33:58;;;;;;;6.13;4.00;;;4.90;99.90;;;;;;5018425;28;20576;-72
2020/12/29 02:36:24;;;;;;;5.80;4.53;;;5.20;99.90;;;;;;5021428;28;20704;-71
2020/12/29 02:38:51;;;;;;;4.97;3.80;;;5.20;99.90;;;;;;5021174;28;20301;-72
2020/12/29 02:41:17;;;;;;;5.80;4.00;;;5.20;99.90;;;;;;5005591;28;20201;-72
2020/12/29 02:43:47;;;;;;;5.53;4.17;;;5.30;99.90;;;;;;5021545;28;20222;-72
2020/12/29 02:46:14;;;;;;;6.40;4.67;;;5.20;99.90;;;;;;5032453;28;20272;-72
2020/12/29 02:48:41;;;;;;;7.17;4.60;;;5.30;99.90;;;;;;5022569;28;20288;-72
2020/12/29 02:51:08;;;;;;;5.87;4.37;;;5.30;99.90;;;;;;5024838;28;20231;-72
2020/12/29 02:53:34;;;;;;;5.00;3.90;;;5.40;99.90;;;;;;5023211;28;20205;-72
2020/12/29 02:56:01;;;;;;;5.57;3.93;;;5.10;99.90;;;;;;5025253;28;20709;-72
2020/12/29 02:58:27;;;;;;;6.43;4.53;;;5.00;99.90;;;;;;5023288;28;20204;-72
2020/12/29 03:00:53;;;;;;;5.83;3.70;;;4.80;99.90;;;;;;5023568;28;20660;-71
2020/12/29 03:03:19;;;;;;;7.33;5.00;;;4.80;99.90;;;;;;5024775;28;20255;-72
2020/12/29 03:05:46;;;;;;;5.63;4.00;;;4.90;99.90;;;;;;5008492;28;20274;-73
2020/12/29 03:08:12;;;;;;;6.97;4.13;;;5.00;99.90;;;;;;5023717;28;20235;-73
2020/12/29 03:10:38;;;;;;;6.07;4.17;;;4.90;99.90;;;;;;5023672;28;20613;-72
2020/12/29 03:13:05;;;;;;;6.97;4.87;;;4.90;99.90;;;;;;5006775;28;20194;-72
2020/12/29 03:15:31;;;;;;;5.00;4.50;;;5.10;99.90;;;;;;5018948;28;20200;-72
2020/12/29 03:17:57;;;;;;;5.80;4.63;;;5.20;99.90;;;;;;5024822;28;20933;-72
2020/12/29 03:20:24;;;;;;;5.23;4.10;;;5.20;99.90;;;;;;5023071;28;20330;-72
2020/12/29 03:22:50;;;;;;;7.70;5.13;;;5.00;99.90;;;;;;5023202;28;20578;-71
2020/12/29 03:25:16;;;;;;;9.63;5.17;;;5.00;99.90;;;;;;5023028;28;20595;-72
2020/12/29 03:27:43;;;;;;;8.70;4.87;;;5.00;99.90;;;;;;5022582;28;21160;-73
2020/12/29 03:30:09;;;;;;;5.47;4.80;;;4.90;99.90;;;;;;5027999;28;20232;-72
2020/12/29 03:32:36;;;;;;;7.17;5.13;;;4.90;99.90;;;;;;5020885;28;20287;-72
2020/12/29 03:35:02;;;;;;;8.27;5.63;;;4.80;99.90;;;;;;5025308;28;20223;-71
2020/12/29 03:37:28;;;;;;;7.03;5.47;;;4.70;99.90;;;;;;5024344;28;20231;-71
2020/12/29 03:39:55;;;;;;;10.13;6.07;;;4.90;99.90;;;;;;5021944;28;20244;-73
2020/12/29 03:42:21;;;;;;;7.50;5.90;;;4.90;99.90;;;;;;5020350;28;20284;-71
2020/12/29 03:44:47;;;;;;;9.77;5.37;;;5.10;99.90;;;;;;5022748;28;20217;-72
2020/12/29 03:47:14;;;;;;;7.43;5.80;;;5.10;99.90;;;;;;5009819;28;20200;-71
2020/12/29 03:49:40;;;;;;;6.90;5.07;;;5.10;99.90;;;;;;5024673;28;20286;-72
2020/12/29 03:52:06;;;;;;;8.17;6.00;;;5.00;99.90;;;;;;5010234;28;20225;-72
2020/12/29 03:54:32;;;;;;;7.27;5.63;;;4.90;99.90;;;;;;5019855;28;20205;-72
2020/12/29 03:56:59;;;;;;;10.33;5.97;;;4.90;99.90;;;;;;5025041;28;20208;-72
2020/12/29 03:59:25;;;;;;;8.87;6.27;;;4.70;99.90;;;;;;5021857;28;20291;-72
2020/12/29 04:01:51;;;;;;;9.20;6.53;;;4.60;99.90;;;;;;5020933;28;20214;-72
2020/12/29 04:04:17;;;;;;;11.13;6.17;;;4.60;99.90;;;;;;5019828;28;20212;-71
2020/12/29 04:06:44;;;;;;;6.97;6.07;;;4.70;99.90;;;;;;5018463;28;20374;-72
2020/12/29 04:09:10;;;;;;;8.10;6.10;;;4.60;99.90;;;;;;5022514;28;20193;-72
2020/12/29 04:11:37;;;;;;;9.23;6.27;;;4.70;99.90;;;;;;5023435;28;20594;-72
2020/12/29 04:14:03;;;;;;;8.63;6.87;;;4.70;99.90;;;;;;5021847;28;20196;-72
2020/12/29 04:16:29;;;;;;;8.27;6.20;;;4.60;99.90;;;;;;5018763;28;20675;-72
2020/12/29 04:18:56;;;;;;;10.43;6.83;;;4.60;99.90;;;;;;5024673;28;20207;-72
2020/12/29 04:21:22;;;;;;;9.27;6.53;;;4.60;99.90;;;;;;5018240;28;20945;-72
2020/12/29 04:23:48;;;;;;;10.47;6.37;;;4.60;99.90;;;;;;5023405;28;20305;-71
2020/12/29 04:26:15;;;;;;;8.67;6.73;;;4.60;99.90;;;;;;5022753;28;20262;-72
2020/12/29 04:28:41;;;;;;;8.80;6.30;;;4.60;99.90;;;;;;5020567;28;20275;-72
2020/12/29 04:31:15;;;;;;;9.77;6.67;;;4.50;99.90;;;;;;5021971;28;20651;-72
2020/12/29 04:33:42;;;;;;;11.80;7.13;;;4.40;99.90;;;;;;5023529;28;20568;-72
2020/12/29 04:36:08;;;;;;;8.97;6.33;;;4.50;99.90;;;;;;5021915;28;20615;-72
2020/12/29 04:38:35;;;;;;;13.67;6.73;;;4.40;99.90;;;;;;5018712;28;20231;-72
2020/12/29 04:41:02;;;;;;;9.80;7.47;;;4.40;99.90;;;;;;5033680;28;20950;-72
2020/12/29 04:43:32;;;;;;;10.13;7.10;;;4.40;99.90;;;;;;5035260;28;20235;-71
2020/12/29 04:46:03;;;;;;;9.10;6.63;;;4.60;99.90;;;;;;5020447;28;20206;-71
2020/12/29 04:48:31;;;;;;;8.60;6.67;;;4.50;99.90;;;;;;5023293;28;20243;-72
2020/12/29 04:51:07;;;;;;;10.03;7.03;;;4.40;99.90;;;;;;5023395;28;20728;-72
2020/12/29 04:53:34;;;;;;;14.87;7.37;;;4.40;99.90;;;;;;5025654;28;20251;-72
2020/12/29 04:56:08;;;;;;;12.20;7.30;;;4.50;99.90;;;;;;5018458;28;20244;-72
2020/12/29 04:58:36;;;;;;;10.30;6.77;;;4.50;99.90;;;;;;5024677;28;20203;-73
2020/12/29 05:01:09;;;;;;;11.87;8.00;;;4.40;99.90;;;;;;5019741;28;20280;-73
2020/12/29 05:03:46;;;;;;;11.13;7.70;;;4.50;99.90;;;;;;5023554;28;20212;-73
2020/12/29 05:06:13;;;;;;;10.30;7.40;;;4.40;99.90;;;;;;5018622;28;20196;-73
2020/12/29 05:08:44;;;;;;;10.70;7.93;;;4.40;99.90;;;;;;5024589;28;20219;-74
2020/12/29 05:11:12;;;;;;;10.40;7.70;;;4.40;99.90;;;;;;5020512;28;20299;-73
2020/12/29 05:13:39;;;;;;;9.97;7.30;;;4.40;99.90;;;;;;5024015;28;20200;-72
2020/12/29 05:16:06;;;;;;;15.03;8.23;;;4.30;99.90;;;;;;5022491;28;20231;-72
2020/12/29 05:18:33;;;;;;;14.07;8.83;;;4.30;99.90;;;;;;5021262;28;20708;-71
2020/12/29 05:21:00;;;;;;;12.07;7.83;;;4.40;99.90;;;;;;5020802;28;20251;-71
2020/12/29 05:23:28;;;;;;;13.53;8.57;;;4.40;99.90;;;;;;5019050;28;20255;-74
2020/12/29 05:25:54;;;;;;;14.47;8.10;;;4.50;99.90;;;;;;5019540;28;20684;-73
2020/12/29 05:28:23;;;;;;;12.93;8.57;;;4.50;99.90;;;;;;5019921;28;20257;-73
2020/12/29 05:30:54;;;;;;;10.10;7.90;;;4.50;99.90;;;;;;5022524;28;20355;-73
2020/12/29 05:33:25;;;;;;;10.53;8.30;;;4.60;99.90;;;;;;5021232;28;20213;-73
2020/12/29 05:35:53;;;;;;;11.77;7.80;;;4.60;99.90;;;;;;5021029;28;20244;-73
2020/12/29 05:38:20;;;;;;;10.87;8.00;;;4.50;99.90;;;;;;5022046;28;20212;-73
2020/12/29 05:40:48;;;;;;;14.03;7.73;;;4.50;99.90;;;;;;5019870;28;20307;-73
2020/12/29 05:43:14;;;;;;;12.47;7.47;;;4.50;99.90;;;;;;5020169;28;20291;-72
2020/12/29 05:45:41;;;;;;;12.83;8.27;;;4.40;99.90;;;;;;5020359;28;20235;-72
2020/12/29 05:48:07;;;;;;;13.37;8.33;;;4.40;99.90;;;;;;5020389;28;20201;-73
2020/12/29 05:50:34;;;;;;;11.13;7.27;;;4.50;99.90;;;;;;5021690;28;20622;-72
2020/12/29 05:53:01;;;;;;;11.87;7.80;;;4.50;99.90;;;;;;5023924;28;20235;-74
2020/12/29 05:55:28;;;;;;;13.77;8.00;;;4.50;99.90;;;;;;5031640;28;20204;-73
2020/12/29 05:57:58;;;;;;;13.93;8.10;;;4.40;99.90;;;;;;5023337;28;20207;-72
2020/12/29 06:00:26;;;;;;;15.17;7.37;;;4.50;99.90;;;;;;5023717;28;20633;-70
2020/12/29 06:02:55;;;;;;;13.23;9.63;;;4.50;99.90;;;;;;5021926;28;20216;-72
2020/12/29 06:05:26;;;;;;;12.93;7.23;;;4.50;99.90;;;;;;5015950;28;20212;-73
2020/12/29 06:08:01;;;;;;;13.03;6.80;;;4.60;99.90;;;;;;5025029;28;20216;-73
2020/12/29 06:10:35;;;;;;;12.90;7.80;;;4.60;99.90;;;;;;5031932;28;20200;-73
2020/12/29 06:13:03;;;;;;;14.63;7.40;;;4.60;99.90;;;;;;5022783;28;20288;-73
2020/12/29 06:15:35;;;;;;;11.33;8.13;;;4.60;99.90;;;;;;5007476;28;20204;-70
2020/12/29 06:18:04;;;;;;;11.20;7.40;;;4.60;99.90;;;;;;5035420;28;20209;-72
2020/12/29 06:21:07;;;;;;;10.47;7.37;;;4.50;99.90;;;;;;5021860;28;20213;-73
2020/12/29 06:23:50;;;;;;;10.10;7.40;;;4.60;99.90;;;;;;4986719;28;20223;-72
2020/12/29 06:26:18;;;;;;;10.83;7.30;;;4.70;99.90;;;;;;5004508;28;20295;-73
2020/12/29 06:28:50;;;;;;;10.57;7.53;;;4.60;99.90;;;;;;5004510;28;20233;-73
2020/12/29 06:31:29;;;;;;;13.93;8.40;;;4.60;99.90;;;;;;5008874;28;20264;-72
2020/12/29 06:33:57;;;;;;;14.27;8.00;;;4.60;99.90;;;;;;5004145;28;20201;-72
2020/12/29 06:36:28;;;;;;;11.83;7.60;;;4.60;99.90;;;;;;4988811;28;20296;-73
2020/12/29 06:38:59;;;;;;;13.50;8.83;;;4.60;99.90;;;;;;5007142;28;20267;-72
2020/12/29 06:41:29;;;;;;;10.87;8.17;;;4.60;99.90;;;;;;4988850;28;20647;-72
2020/12/29 06:43:55;;;;;;;10.97;7.77;;;4.60;99.90;;;;;;5004244;28;20251;-72
2020/12/29 06:46:21;;;;;;;11.13;7.27;;;4.60;99.90;;;;;;4971411;28;20249;-72
2020/12/29 06:48:48;;;;;;;11.87;8.23;;;4.60;99.90;;;;;;4990541;28;20224;-72
2020/12/29 06:51:14;;;;;;;10.90;8.13;;;4.60;99.90;;;;;;5004858;28;20248;-73
2020/12/29 06:53:42;;;;;;;12.07;8.07;;;4.60;99.90;;;;;;5005218;28;20473;-73
2020/12/29 06:56:18;;;;;;;11.47;7.27;;;4.60;99.90;;;;;;5002946;28;20217;-71
2020/12/29 06:58:44;;;;;;;10.63;7.93;;;4.60;99.90;;;;;;5025444;28;20751;-71
2020/12/29 07:01:24;;;;;;;11.10;7.83;;;4.60;99.90;;;;;;5035407;28;20213;-73
2020/12/29 07:04:00;;;;;;;9.93;7.70;;;4.40;99.90;;;;;;5024593;28;20794;-73
2020/12/29 07:06:31;;;;;;;11.30;7.87;;;4.50;99.90;;;;;;5022328;28;20227;-72
2020/12/29 07:09:25;;;;;;;19.60;9.30;;;4.40;99.90;;;;;;5026413;28;20192;-73
2020/12/29 07:12:09;;;;;;;13.23;7.23;;;4.50;99.90;;;;;;5024227;28;20274;-72
2020/12/29 07:14:36;;;;;;;15.00;9.00;;;4.60;99.90;;;;;;5022536;28;20197;-72
2020/12/29 07:17:06;;;;;;;13.03;8.13;;;4.60;99.90;;;;;;5036776;28;20239;-72
2020/12/29 07:19:37;;;;;;;12.97;7.80;;;4.50;99.90;;;;;;5021488;28;20313;-72
2020/12/29 07:22:33;;;;;;;15.83;9.43;;;4.50;99.90;;;;;;5024398;28;20232;-72
2020/12/29 07:25:00;;;;;;;13.60;8.27;;;4.60;99.90;;;;;;5020925;28;20306;-72
2020/12/29 07:27:31;;;;;;;14.93;8.43;;;4.50;99.90;;;;;;5029869;28;20371;-72
2020/12/29 07:29:59;;;;;;;12.67;8.23;;;4.50;99.90;;;;;;5023865;28;20197;-72
2020/12/29 07:32:26;;;;;;;14.63;9.00;;;4.40;99.90;;;;;;5022807;28;20620;-72
2020/12/29 07:34:52;;;;;;;11.37;7.83;;;4.50;99.90;;;;;;5021910;28;20323;-72
2020/12/29 07:37:21;;;;;;;14.30;9.23;;;4.70;99.90;;;;;;5024336;28;20481;-72
2020/12/29 07:39:47;;;;;;;17.07;9.73;;;4.60;99.90;;;;;;5019804;28;20576;-73
2020/12/29 07:42:14;;;;;;;14.93;8.43;;;4.50;99.90;;;;;;5025078;28;20300;-73
2020/12/29 07:44:42;;;;;;;18.23;9.43;;;4.60;99.90;;;;;;5021716;28;20251;-72
2020/12/29 07:47:09;;;;;;;13.17;8.70;;;4.60;99.90;;;;;;5055784;28;20346;-72
2020/12/29 07:49:36;;;;;;;13.97;7.97;;;4.50;99.90;;;;;;5020045;28;20231;-72
2020/12/29 07:52:02;;;;;;;13.20;8.33;;;4.50;99.90;;;;;;5021652;28;20235;-73
2020/12/29 07:54:29;;;;;;;14.73;8.80;;;4.40;99.90;;;;;;5020128;28;20369;-72
2020/12/29 07:56:55;;;;;;;15.53;8.30;;;4.40;99.90;;;;;;5024743;28;20221;-72
2020/12/29 07:59:22;;;;;;;13.33;7.83;;;4.30;99.90;;;;;;5024233;28;20266;-71
2020/12/29 08:01:49;;;;;;;13.47;8.80;;;4.20;99.90;;;;;;5019684;28;20242;-71
2020/12/29 08:04:23;;;;;;;12.67;8.70;;;4.30;99.90;;;;;;5017429;28;20224;-71
2020/12/29 08:06:49;;;;;;;13.60;9.40;;;4.30;99.90;;;;;;5008067;28;20268;-72
2020/12/29 08:09:15;;;;;;;15.23;9.17;;;4.30;99.90;;;;;;5021674;28;20599;-72
2020/12/29 08:11:42;;;;;;;15.13;9.00;;;4.20;99.90;;;;;;5006763;28;20213;-72
2020/12/29 08:14:10;;;;;;;16.57;8.07;;;4.20;99.90;;;;;;5022773;28;20611;-72
2020/12/29 08:16:36;;;;;;;11.97;8.67;;;4.20;99.90;;;;;;5021507;28;20705;-72
2020/12/29 08:19:06;;;;;;;11.93;8.23;;;4.20;99.90;;;;;;5020009;28;20282;-72
2020/12/29 08:21:36;;;;;;;13.23;8.50;;;4.30;99.90;;;;;;5046941;28;20657;-72
2020/12/29 08:24:04;;;;;;;14.97;8.30;;;4.40;99.90;;;;;;5020517;28;20637;-72
2020/12/29 08:26:31;;;;;;;16.20;8.73;;;4.30;99.90;;;;;;5000710;28;590490;-74
2020/12/29 08:28:58;;;;;;;11.57;8.37;;;4.30;99.90;;;;;;5036545;28;20204;-72
2020/12/29 08:31:27;;;;;;;14.37;8.97;;;4.20;99.90;;;;;;5022685;28;20236;-72
2020/12/29 08:33:55;;;;;;;12.80;8.37;;;4.20;99.90;;;;;;5024744;28;20211;-73
2020/12/29 08:36:26;;;;;;;16.37;8.10;;;4.20;99.90;;;;;;5035055;28;20560;-72
2020/12/29 08:39:22;;;;;;;14.67;8.97;;;4.30;99.90;;;;;;5025308;28;20236;-75
2020/12/29 08:41:57;;;;;;;12.87;8.13;;;4.20;99.90;;;;;;5024911;28;20215;-76
2020/12/29 08:44:26;;;;;;;12.43;7.73;;;4.30;99.90;;;;;;5021578;28;20244;-75
2020/12/29 08:46:54;;;;;;;14.13;8.23;;;4.30;99.90;;;;;;5034610;28;20702;-76
2020/12/29 08:49:28;;;;;;;14.27;9.03;;;4.20;99.90;;;;;;5034920;28;20319;-75
2020/12/29 08:51:55;;;;;;;15.97;8.70;;;4.40;99.90;;;;;;5018754;28;20579;-76
2020/12/29 08:54:22;;;;;;;14.47;8.73;;;4.50;99.90;;;;;;5015960;28;20228;-75
2020/12/29 08:56:58;;;;;;;15.83;8.90;;;4.40;99.90;;;;;;5022521;28;20205;-75
2020/12/29 08:59:33;;;;;;;12.07;8.47;;;4.30;99.90;;;;;;5037101;28;20399;-75
2020/12/29 09:01:59;;;;;;;16.47;9.80;;;4.30;99.90;;;;;;5025642;28;20196;-75
2020/12/29 09:04:44;;;;;;;16.27;9.03;;;4.40;99.90;;;;;;5033359;28;20231;-74
2020/12/29 09:07:15;;;;;;;17.13;10.17;;;4.60;99.90;;;;;;5022742;28;20203;-75
2020/12/29 09:09:51;;;;;;;15.20;8.33;;;4.50;99.90;;;;;;5004214;28;20197;-76
2020/12/29 09:12:18;;;;;;;16.67;9.07;;;4.50;99.90;;;;;;5019727;28;20213;-75
2020/12/29 09:15:11;;;;;;;15.67;9.60;;;4.50;99.90;;;;;;5024858;28;20231;-76
2020/12/29 09:17:42;;;;;;;15.57;9.27;;;4.60;99.90;;;;;;5027640;28;20211;-75
2020/12/29 09:20:29;;;;;;;13.70;8.03;;;4.40;99.90;;;;;;5041845;28;20303;-74
2020/12/29 09:23:12;;;;;;;16.70;9.70;;;4.20;99.90;;;;;;5042353;28;20196;-75
2020/12/29 09:25:42;;;;;;;19.77;8.77;;;4.30;99.90;;;;;;5022954;28;20640;-76
2020/12/29 09:28:22;;;;;;;12.50;8.37;;;4.30;99.90;;;;;;5022847;28;20233;-75
2020/12/29 09:31:01;;;;;;;18.17;8.10;;;4.30;99.90;;;;;;5022982;28;20230;-77
2020/12/29 09:33:29;;;;;;;13.03;8.10;;;4.10;99.90;;;;;;5018908;28;20201;-76
2020/12/29 09:36:02;;;;;;;13.23;9.17;;;4.00;99.90;;;;;;5025636;28;20197;-76
2020/12/29 09:38:31;;;;;;;16.43;9.17;;;4.00;99.90;;;;;;5017740;28;20875;-76
2020/12/29 09:41:00;;;;;;;14.03;8.37;;;4.00;99.90;;;;;;5018092;28;20645;-75
2020/12/29 09:43:26;;;;;;;15.00;9.30;;;4.00;99.90;;;;;;5013971;28;20566;-76
2020/12/29 09:45:53;;;;;;;16.13;10.13;;;4.10;99.90;;;;;;5019469;28;20553;-72
2020/12/29 09:48:19;;;;;;;13.43;9.57;;;4.20;99.90;;;;;;5019649;28;20287;-72
2020/12/29 09:50:46;;;;;;;12.67;9.13;;;4.40;99.90;;;;;;5023262;28;20616;-73
2020/12/29 09:53:12;;;;;;;16.60;9.80;;;4.40;99.90;;;;;;5019578;28;20193;-72
2020/12/29 09:55:39;;;;;;;17.43;11.37;;;4.50;99.90;;;;;;5015113;28;20205;-73
2020/12/29 09:58:05;;;;;;;14.00;10.27;;;4.60;99.90;;;;;;5005909;28;20203;-72
2020/12/29 10:00:52;;;;;;;15.33;10.37;;;4.50;99.90;;;;;;5014839;28;20308;-73
2020/12/29 10:03:19;;;;;;;19.73;12.10;;;4.40;99.90;;;;;;5018921;28;20212;-72
2020/12/29 10:05:45;;;;;;;20.23;11.03;;;4.50;99.90;;;;;;5017261;28;20256;-72
2020/12/29 10:08:12;;;;;;;20.87;10.37;;;4.60;99.90;;;;;;5051887;28;20246;-73
2020/12/29 10:10:38;;;;;;;19.53;11.03;;;4.50;99.90;;;;;;5015437;28;20322;-72
2020/12/29 10:13:05;;;;;;;18.67;11.67;;;4.30;99.90;;;;;;5014380;28;20201;-72
2020/12/29 10:15:32;;;;;;;21.33;12.27;;;4.30;99.90;;;;;;5020060;28;20285;-72
2020/12/29 10:18:00;;;;;;;19.70;11.33;;;4.60;99.90;;;;;;5014028;28;20609;-72
2020/12/29 10:20:27;;;;;;;21.20;11.50;;;4.60;99.90;;;;;;5017195;28;20251;-71
2020/12/29 10:22:53;;;;;;;22.40;12.97;;;4.50;99.90;;;;;;5015724;28;20210;-72
2020/12/29 10:25:19;;;;;;;17.63;11.63;;;4.70;99.90;;;;;;5017232;28;20633;-73
2020/12/29 10:27:46;;;;;;;21.30;12.93;;;4.60;99.90;;;;;;5026501;28;20288;-72
2020/12/29 10:30:13;;;;;;;24.30;13.03;;;4.60;99.90;;;;;;5003162;28;20636;-72
2020/12/29 10:32:40;;;;;;;20.43;13.37;;;4.50;99.90;;;;;;5012065;28;20300;-71
2020/12/29 10:35:07;;;;;;;21.50;13.00;;;4.60;99.90;;;;;;5032152;28;20225;-72
2020/12/29 10:37:34;;;;;;;21.00;13.33;;;4.60;99.90;;;;;;5016682;28;20205;-72
2020/12/29 10:40:01;;;;;;;22.63;12.43;;;4.50;99.90;;;;;;5019006;28;20303;-71
2020/12/29 10:42:27;;;;;;;17.90;11.07;;;4.50;99.90;;;;;;5018724;28;20224;-72
2020/12/29 10:44:53;;;;;;;18.53;12.43;;;4.60;99.90;;;;;;5003731;28;20602;-72
2020/12/29 10:47:19;;;;;;;20.80;12.07;;;4.60;99.90;;;;;;5016418;28;20280;-71
2020/12/29 10:49:46;;;;;;;18.07;11.53;;;4.70;99.90;;;;;;5018981;28;20314;-72
2020/12/29 10:52:12;;;;;;;15.83;10.90;;;4.60;99.90;;;;;;5017612;28;20208;-72
2020/12/29 10:54:38;;;;;;;17.70;11.10;;;4.70;99.90;;;;;;5018480;28;20343;-72
2020/12/29 10:57:05;;;;;;;15.37;10.17;;;4.60;99.90;;;;;;5016058;28;20208;-73
2020/12/29 10:59:31;;;;;;;16.37;10.50;;;4.60;99.90;;;;;;5018050;28;20224;-72
2020/12/29 11:01:58;;;;;;;17.43;10.97;;;4.70;99.90;;;;;;5018826;28;20678;-72
2020/12/29 11:04:25;;;;;;;13.93;9.13;;;4.70;99.90;;;;;;5018779;28;20254;-72
2020/12/29 11:06:52;;;;;;;15.23;8.63;;;4.80;99.90;;;;;;5019722;28;20201;-72
2020/12/29 11:09:18;;;;;;;14.53;9.63;;;4.70;99.90;;;;;;5014297;28;20278;-73
2020/12/29 11:11:46;;;;;;;13.73;8.27;;;4.90;99.90;;;;;;5021106;28;20335;-73
2020/12/29 11:14:13;;;;;;;18.00;9.47;;;4.80;99.90;;;;;;5024810;28;20259;-72
2020/12/29 11:16:39;;;;;;;14.37;9.10;;;4.70;99.90;;;;;;5021393;28;20206;-73
2020/12/29 11:19:05;;;;;;;14.17;9.10;;;4.70;99.90;;;;;;5022532;28;20295;-72
2020/12/29 11:21:32;;;;;;;15.87;10.20;;;4.70;99.90;;;;;;5018772;28;20224;-73
2020/12/29 11:23:58;;;;;;;13.83;8.87;;;4.80;99.90;;;;;;5016370;28;20228;-72
2020/12/29 11:26:25;;;;;;;14.93;9.60;;;4.80;99.90;;;;;;5027881;28;20332;-73
2020/12/29 11:28:51;;;;;;;18.60;10.27;;;4.80;99.90;;;;;;5019547;28;20677;-73
2020/12/29 11:31:21;;;;;;;16.93;11.07;;;4.80;99.90;;;;;;5016321;28;20211;-73
2020/12/29 11:33:48;;;;;;;18.97;11.30;;;4.80;99.90;;;;;;5004761;28;20203;-73
2020/12/29 11:36:16;;;;;;;21.20;11.10;;;4.80;99.90;;;;;;5022301;28;20290;-73
2020/12/29 11:38:42;;;;;;;20.63;12.07;;;4.80;99.90;;;;;;5010693;28;20290;-73
2020/12/29 11:41:09;;;;;;;19.90;12.43;;;4.80;99.90;;;;;;5010112;28;20233;-73
2020/12/29 11:43:35;;;;;;;25.47;14.27;;;4.80;99.90;;;;;;5026393;28;20641;-73
2020/12/29 11:46:07;;;;;;;23.33;13.90;;;4.80;99.90;;;;;;5010021;28;20365;-73
2020/12/29 11:48:34;;;;;;;23.00;13.50;;;4.90;99.90;;;;;;5018461;28;20224;-73
2020/12/29 11:51:01;;;;;;;22.83;13.93;;;4.90;99.90;;;;;;5021207;28;20193;-74
2020/12/29 11:53:28;;;;;;;21.77;12.83;;;4.90;99.90;;;;;;5015518;28;20197;-74
2020/12/29 11:55:55;;;;;;;26.00;14.87;;;4.90;99.90;;;;;;5020529;28;20549;-74
2020/12/29 11:58:21;;;;;;;27.43;14.37;;;4.90;99.90;;;;;;5013165;28;20288;-75
2020/12/29 12:00:48;;;;;;;23.57;13.57;;;4.90;99.90;;;;;;5000986;28;20286;-74
2020/12/29 12:03:22;;;;;;;24.60;14.83;;;4.90;99.90;;;;;;5015659;28;20258;-74
2020/12/29 12:05:49;;;;;;;21.13;13.10;;;4.90;99.90;;;;;;5032586;28;20302;-73
2020/12/29 12:08:15;;;;;;;24.07;14.83;;;4.90;99.90;;;;;;5017737;28;20250;-74
2020/12/29 12:10:41;;;;;;;20.03;12.37;;;4.90;99.90;;;;;;5015290;28;20328;-73
2020/12/29 12:13:08;;;;;;;21.17;11.93;;;4.90;99.90;;;;;;5017392;28;20642;-74
2020/12/29 12:15:51;;;;;;;21.33;12.77;;;4.90;99.90;;;;;;5013633;28;20216;-73
2020/12/29 12:18:34;;;;;;;21.53;11.70;;;4.90;99.90;;;;;;4989705;28;20217;-74
2020/12/29 12:21:01;;;;;;;21.07;12.93;;;4.90;99.90;;;;;;5015201;28;20212;-74
2020/12/29 12:23:28;;;;;;;18.73;10.43;;;5.00;99.90;;;;;;5015093;28;20213;-74
2020/12/29 12:25:55;;;;;;;19.57;12.17;;;5.00;99.90;;;;;;5010266;28;20232;-74
2020/12/29 12:28:22;;;;;;;20.30;11.20;;;5.10;99.90;;;;;;5011066;28;20292;-74
2020/12/29 12:30:48;;;;;;;17.77;11.07;;;5.00;99.90;;;;;;5014339;28;20204;-74
2020/12/29 12:33:15;;;;;;;16.63;11.27;;;5.10;99.90;;;;;;5004159;28;20192;-74
2020/12/29 12:35:42;;;;;;;24.10;12.67;;;5.00;99.90;;;;;;5018482;28;20259;-76
2020/12/29 12:38:08;;;;;;;20.47;12.10;;;5.00;99.90;;;;;;5029020;28;20310;-74
2020/12/29 12:40:34;;;;;;;19.43;11.33;;;5.00;99.90;;;;;;5015509;28;20204;-73
2020/12/29 12:43:01;;;;;;;20.33;11.17;;;5.10;99.90;;;;;;5029269;28;20285;-74
2020/12/29 12:45:28;;;;;;;17.50;11.07;;;5.00;99.90;;;;;;5018852;28;20225;-71
2020/12/29 12:47:54;;;;;;;17.53;10.17;;;5.10;99.90;;;;;;5015846;28;20251;-70
2020/12/29 12:50:21;;;;;;;18.23;11.13;;;5.10;99.90;;;;;;5013915;28;20231;-71
2020/12/29 12:52:48;;;;;;;18.00;11.07;;;5.00;99.90;;;;;;5012782;28;22582;-74
2020/12/29 12:55:15;;;;;;;15.23;9.97;;;5.00;99.90;;;;;;5017757;28;20288;-73